Time;durP1;ratioP1;P1;durP2;ratioP2;P2;SDS_P1;SDS_P2;PMS_P1;PMS_P2;Temp;Humidity;BMP_temperature;BMP_pressure;BME280_temperature;BME280_humidity;BME280_pressure;Samples;Min_cycle;Max_cycle;Signal;HPM_P1;HPM_P2
2022/01/30 00:01:51;;;;;;;;;;;7.80;99.90;;;;;;5217562;27;43541;-84
2022/01/30 00:04:18;;;;;;;;;;;7.80;99.90;;;;;;5200306;27;41001;-84
2022/01/30 00:06:46;;;;;;;;;;;7.80;99.90;;;;;;5218123;27;38523;-85
2022/01/30 00:09:22;;;;;;;;;;;7.80;99.90;;;;;;5236716;27;39064;-85
2022/01/30 00:11:57;;;;;;;;;;;7.80;99.90;;;;;;5237321;27;37182;-84
2022/01/30 00:14:26;;;;;;;;;;;7.70;99.90;;;;;;5200191;27;45266;-84
2022/01/30 00:17:03;;;;;;;;;;;7.70;99.90;;;;;;5237359;27;20729;-84
2022/01/30 00:19:57;;;;;;;;;;;7.70;99.90;;;;;;5218499;27;35797;-84
2022/01/30 00:25:14;;;;;;;;;;;7.70;99.90;;;;;;5218481;27;24169;-84
2022/01/30 00:28:00;;;;;;;;;;;7.70;99.90;;;;;;5199858;27;41342;-84
2022/01/30 00:30:33;;;;;;;;;;;7.60;99.90;;;;;;5237126;27;45039;-84
2022/01/30 00:33:02;;;;;;;;;;;7.60;99.90;;;;;;5217548;27;45225;-84
2022/01/30 00:35:33;;;;;;;;;;;7.60;99.90;;;;;;5237637;27;27746;-84
2022/01/30 00:38:01;;;;;;;;;;;7.60;99.90;;;;;;5217378;27;44275;-84
2022/01/30 00:40:34;;;;;;;;;;;7.60;99.90;;;;;;5220322;27;19996;-84
2022/01/30 00:43:03;;;;;;;;;;;7.60;99.90;;;;;;5218728;27;20403;-84
2022/01/30 00:45:33;;;;;;;;;;;7.60;99.90;;;;;;5237343;27;20052;-84
2022/01/30 00:48:00;;;;;;;;;;;7.60;99.90;;;;;;5218463;27;20450;-84
2022/01/30 00:50:27;;;;;;;;;;;7.60;99.90;;;;;;5237830;27;20010;-84
2022/01/30 00:53:00;;;;;;;;;;;7.60;99.90;;;;;;5218417;27;19995;-84
2022/01/30 00:55:30;;;;;;;;;;;7.50;99.90;;;;;;5238498;27;20005;-84
2022/01/30 00:57:57;;;;;;;;;;;7.60;99.90;;;;;;5237759;27;20068;-84
2022/01/30 01:00:25;;;;;;;;;;;7.60;99.90;;;;;;5237957;27;20007;-85
2022/01/30 01:02:58;;;;;;;;;;;7.50;99.90;;;;;;5218360;27;20003;-84
2022/01/30 01:05:29;;;;;;;;;;;7.50;99.90;;;;;;5219109;27;20436;-84
2022/01/30 01:07:59;;;;;;;;;;;7.50;99.90;;;;;;5238258;27;20007;-84
2022/01/30 01:23:32;;;;;;;;;;;7.40;99.90;;;;;;5236901;27;27363;-84
2022/01/30 01:26:00;;;;;;;;;;;7.40;99.90;;;;;;5219163;27;20039;-85
2022/01/30 01:28:30;;;;;;;;;;;7.40;99.90;;;;;;5218198;27;34914;-84
2022/01/30 01:30:57;;;;;;;;;;;7.40;99.90;;;;;;5237352;27;42838;-85
2022/01/30 01:33:30;;;;;;;;;;;7.40;99.90;;;;;;5217383;27;35791;-85
2022/01/30 01:35:57;;;;;;;;;;;7.40;99.90;;;;;;5200417;27;38871;-84
2022/01/30 01:38:27;;;;;;;;;;;7.40;99.90;;;;;;5217712;27;33272;-84
2022/01/30 01:40:55;;;;;;;;;;;7.40;99.90;;;;;;5237755;27;32710;-84
2022/01/30 01:43:24;;;;;;;;;;;7.40;99.90;;;;;;5219193;27;28895;-84
2022/01/30 01:45:54;;;;;;;;;;;7.30;99.90;;;;;;5219771;27;20000;-85
2022/01/30 01:48:24;;;;;;;;;;;7.40;99.90;;;;;;5202808;27;20003;-84
2022/01/30 01:51:04;;;;;;;;;;;7.30;99.90;;;;;;5219343;27;44819;-85
2022/01/30 01:53:34;;;;;;;;;;;7.40;99.90;;;;;;5220048;27;20002;-84
2022/01/30 01:56:01;;;;;;;;;;;7.40;99.90;;;;;;5219607;27;20003;-85
2022/01/30 01:58:28;;;;;;;;;;;7.30;99.90;;;;;;5219834;27;20391;-84
2022/01/30 02:00:55;;;;;;;;;;;7.30;99.90;;;;;;5220158;27;20013;-84
2022/01/30 02:03:23;;;;;;;;;;;7.30;99.90;;;;;;5202294;27;20424;-84
2022/01/30 02:05:55;;;;;;;;;;;7.30;99.90;;;;;;5218752;27;37947;-85
2022/01/30 02:08:31;;;;;;;;;;;7.30;99.90;;;;;;5239380;27;20003;-84
2022/01/30 02:11:11;;;;;;;;;;;7.30;99.90;;;;;;5220634;27;20025;-84
2022/01/30 02:24:27;;;;;;;;;;;7.30;99.90;;;;;;5239237;27;20011;-84
2022/01/30 02:26:54;;;;;;;;;;;7.30;99.90;;;;;;5201971;27;19994;-84
2022/01/30 02:29:24;;;;;;;;;;;7.30;99.90;;;;;;5219672;27;20051;-84
2022/01/30 02:31:55;;;;;;;;;;;7.30;99.90;;;;;;5219243;27;20051;-84
2022/01/30 02:34:27;;;;;;;;;;;7.20;99.90;;;;;;5220190;27;19987;-84
2022/01/30 02:36:55;;;;;;;;;;;7.30;99.90;;;;;;5238243;27;19995;-85
2022/01/30 02:39:27;;;;;;;;;;;7.20;99.90;;;;;;5237959;27;22635;-84
2022/01/30 02:41:54;;;;;;;;;;;7.20;99.90;;;;;;5239088;27;19999;-84
2022/01/30 02:46:52;;;;;;;;;;;7.20;99.90;;;;;;5219235;27;19991;-84
2022/01/30 02:51:52;;;;;;;;;;;7.20;99.90;;;;;;5238531;27;20388;-85
2022/01/30 02:54:25;;;;;;;;;;;7.20;99.90;;;;;;5237755;27;40998;-84
2022/01/30 02:56:52;;;;;;;;;;;7.20;99.90;;;;;;5218832;27;35912;-84
2022/01/30 02:59:19;;;;;;;;;;;7.10;99.90;;;;;;5200817;27;35170;-84
2022/01/30 03:01:47;;;;;;;;;;;7.20;99.90;;;;;;5218221;27;41688;-85
2022/01/30 03:04:15;;;;;;;;;;;7.10;99.90;;;;;;5237301;27;37144;-85
2022/01/30 03:06:45;;;;;;;;;;;7.10;99.90;;;;;;5237596;27;33341;-85
2022/01/30 03:09:12;;;;;;;;;;;7.10;99.90;;;;;;5238859;27;19999;-84
2022/01/30 03:11:42;;;;;;;;;;;7.10;99.90;;;;;;5219981;27;20040;-84
2022/01/30 03:14:09;;;;;;;;;;;7.10;99.90;;;;;;5237411;27;42606;-84
2022/01/30 03:16:36;;;;;;;;;;;7.10;99.90;;;;;;5237086;27;38468;-84
2022/01/30 03:19:03;;;;;;;;;;;7.10;99.90;;;;;;5200487;27;39566;-85
2022/01/30 03:21:31;;;;;;;;;;;7.10;99.90;;;;;;5219077;27;26822;-84
2022/01/30 03:23:58;;;;;;;;;;;7.00;99.90;;;;;;5218036;27;36937;-84
2022/01/30 03:26:25;;;;;;;;;;;7.00;99.90;;;;;;5218281;27;39591;-84
2022/01/30 03:29:04;;;;;;;;;;;7.00;99.90;;;;;;5236805;27;43220;-84
2022/01/30 03:31:31;;;;;;;;;;;7.00;99.90;;;;;;5220212;27;20042;-84
2022/01/30 03:34:01;;;;;;;;;;;7.00;99.90;;;;;;5237839;27;19999;-84
2022/01/30 03:36:29;;;;;;;;;;;7.00;99.90;;;;;;5238088;27;20045;-84
2022/01/30 03:38:59;;;;;;;;;;;7.00;99.90;;;;;;5219282;27;20017;-84
2022/01/30 03:41:26;;;;;;;;;;;7.00;99.90;;;;;;5237743;27;20003;-84
2022/01/30 03:43:54;;;;;;;;;;;7.00;99.90;;;;;;5220026;27;19995;-84
2022/01/30 03:46:21;;;;;;;;;;;6.90;99.90;;;;;;5218983;27;20414;-84
2022/01/30 03:49:09;;;;;;;;;;;6.90;99.90;;;;;;5204698;27;20030;-84
2022/01/30 03:51:36;;;;;;;;;;;6.90;99.90;;;;;;5219136;27;20011;-85
2022/01/30 03:54:03;;;;;;;;;;;6.90;99.90;;;;;;5219781;27;20013;-84
2022/01/30 03:56:33;;;;;;;;;;;6.90;99.90;;;;;;5219636;27;20042;-84
2022/01/30 03:59:02;;;;;;;;;;;6.90;99.90;;;;;;5238672;27;20048;-84
2022/01/30 04:01:29;;;;;;;;;;;6.90;99.90;;;;;;5219918;27;20007;-84
2022/01/30 04:04:00;;;;;;;;;;;6.90;99.90;;;;;;5201839;27;19994;-84
2022/01/30 04:06:28;;;;;;;;;;;6.80;99.90;;;;;;5202144;27;20035;-84
2022/01/30 04:08:56;;;;;;;;;;;6.80;99.90;;;;;;5201735;27;19995;-84
2022/01/30 04:11:24;;;;;;;;;;;6.80;99.90;;;;;;5238066;27;19995;-84
2022/01/30 04:13:51;;;;;;;;;;;6.80;99.90;;;;;;5219018;27;19996;-84
2022/01/30 04:16:18;;;;;;;;;;;6.80;99.90;;;;;;5202138;27;20003;-84
2022/01/30 04:18:46;;;;;;;;;;;6.80;99.90;;;;;;5201542;27;19995;-85
2022/01/30 04:21:19;;;;;;;;;;;6.80;99.90;;;;;;5202524;27;19987;-84
2022/01/30 04:23:46;;;;;;;;;;;6.80;99.90;;;;;;5238081;27;20047;-84
2022/01/30 04:26:13;;;;;;;;;;;6.80;99.90;;;;;;5218913;27;20415;-84
2022/01/30 04:28:40;;;;;;;;;;;6.80;99.90;;;;;;5218695;27;20403;-84
2022/01/30 04:31:10;;;;;;;;;;;6.80;99.90;;;;;;5219355;27;20015;-84
2022/01/30 04:33:37;;;;;;;;;;;6.80;99.90;;;;;;5201115;27;19987;-84
2022/01/30 04:36:08;;;;;;;;;;;6.80;99.90;;;;;;5201405;27;20000;-84
2022/01/30 05:07:51;;;;;;;;;;;6.60;99.90;;;;;;5237133;27;20002;-84
2022/01/30 05:10:18;;;;;;;;;;;6.60;99.90;;;;;;5237784;27;20309;-84
2022/01/30 05:12:52;;;;;;;;;;;6.60;99.90;;;;;;5218626;27;19995;-84
2022/01/30 05:15:20;;;;;;;;;;;6.60;99.90;;;;;;5219542;27;20002;-84
2022/01/30 05:17:48;;;;;;;;;;;6.60;99.90;;;;;;5239946;27;19999;-84
2022/01/30 05:20:15;;;;;;;;;;;6.60;99.90;;;;;;5239584;27;20022;-85
2022/01/30 05:22:45;;;;;;;;;;;6.60;99.90;;;;;;5220246;27;20082;-84
2022/01/30 05:25:12;;;;;;;;;;;6.60;99.90;;;;;;5238796;27;36255;-85
2022/01/30 05:27:39;;;;;;;;;;;6.60;99.90;;;;;;5219147;27;37549;-85
2022/01/30 05:30:07;;;;;;;;;;;6.60;99.90;;;;;;5202019;27;25871;-86
2022/01/30 05:32:34;;;;;;;;;;;6.50;99.90;;;;;;5237591;27;45393;-85
2022/01/30 05:35:01;;;;;;;;;;;6.50;99.90;;;;;;5219130;27;39880;-85
2022/01/30 05:37:29;;;;;;;;;;;6.50;99.90;;;;;;5200990;27;46830;-85
2022/01/30 05:39:56;;;;;;;;;;;6.50;99.90;;;;;;5201382;27;42826;-85
2022/01/30 05:42:26;;;;;;;;;;;6.50;99.90;;;;;;5237952;27;32505;-85
2022/01/30 05:45:11;;;;;;;;;;;6.50;99.90;;;;;;5238143;27;45077;-85
2022/01/30 05:47:45;;;;;;;;;;;6.50;99.90;;;;;;5218499;27;43637;-85
2022/01/30 05:50:12;;;;;;;;;;;6.50;99.90;;;;;;5201098;27;44847;-84
2022/01/30 05:52:43;;;;;;;;;;;6.50;99.90;;;;;;5201714;27;43508;-84
2022/01/30 05:55:10;;;;;;;;;;;6.40;99.90;;;;;;5220172;27;20046;-85
2022/01/30 05:57:37;;;;;;;;;;;6.40;99.90;;;;;;5219411;27;38678;-86
2022/01/30 06:00:06;;;;;;;;;;;6.40;99.90;;;;;;5218448;27;33363;-84
2022/01/30 06:02:35;;;;;;;;;;;6.40;99.90;;;;;;5219761;27;20076;-84
2022/01/30 06:05:03;;;;;;;;;;;6.40;99.90;;;;;;5239411;27;20063;-84
2022/01/30 06:07:31;;;;;;;;;;;6.40;99.90;;;;;;5237985;27;27704;-85
2022/01/30 06:09:58;;;;;;;;;;;6.40;99.90;;;;;;5219039;27;19999;-84
2022/01/30 06:12:26;;;;;;;;;;;6.40;99.90;;;;;;5218839;27;36407;-85
2022/01/30 06:14:53;;;;;;;;;;;6.30;99.90;;;;;;5238404;27;21756;-84
2022/01/30 06:17:20;;;;;;;;;;;6.30;99.90;;;;;;5219281;27;23223;-84
2022/01/30 06:19:47;;;;;;;;;;;6.30;99.90;;;;;;5237786;27;33047;-84
2022/01/30 06:22:19;;;;;;;;;;;6.30;99.90;;;;;;5219423;27;36354;-84
2022/01/30 06:24:47;;;;;;;;;;;6.30;99.90;;;;;;5219252;27;39582;-84
2022/01/30 06:27:14;;;;;;;;;;;6.30;99.90;;;;;;5238714;27;20018;-84
2022/01/30 06:29:41;;;;;;;;;;;6.30;99.90;;;;;;5238467;27;19995;-84
2022/01/30 06:32:08;;;;;;;;;;;6.30;99.90;;;;;;5239120;27;20014;-84
2022/01/30 06:34:36;;;;;;;;;;;6.30;99.90;;;;;;5220213;27;19995;-84
2022/01/30 06:37:05;;;;;;;;;;;6.30;99.90;;;;;;5238957;27;20051;-84
2022/01/30 06:39:32;;;;;;;;;;;6.30;99.90;;;;;;5219163;27;20037;-84
2022/01/30 06:41:59;;;;;;;;;;;6.30;99.90;;;;;;5219543;27;20027;-84
2022/01/30 06:44:29;;;;;;;;;;;6.30;99.90;;;;;;5220453;27;19991;-84
2022/01/30 06:46:56;;;;;;;;;;;6.30;99.90;;;;;;5201287;27;20347;-84
2022/01/30 06:49:23;;;;;;;;;;;6.20;99.90;;;;;;5220166;27;20062;-84
2022/01/30 06:51:51;;;;;;;;;;;6.20;99.90;;;;;;5238678;27;20042;-84
2022/01/30 06:54:18;;;;;;;;;;;6.20;99.90;;;;;;5238524;27;20388;-84
2022/01/30 06:56:45;;;;;;;;;;;6.20;99.90;;;;;;5219720;27;20003;-84
2022/01/30 06:59:15;;;;;;;;;;;6.20;99.90;;;;;;5202139;27;20347;-85
2022/01/30 07:01:42;;;;;;;;;;;6.20;99.90;;;;;;5238697;27;20011;-85
2022/01/30 07:04:09;;;;;;;;;;;6.20;99.90;;;;;;5219217;27;20016;-84
2022/01/30 07:06:39;;;;;;;;;;;6.20;99.90;;;;;;5238816;27;19996;-84
2022/01/30 07:09:06;;;;;;;;;;;6.20;99.90;;;;;;5219213;27;20365;-83
2022/01/30 07:11:36;;;;;;;;;;;6.20;99.90;;;;;;5202161;27;20006;-84
2022/01/30 07:14:04;;;;;;;;;;;6.20;99.90;;;;;;5201617;27;20441;-84
2022/01/30 07:16:31;;;;;;;;;;;6.20;99.90;;;;;;5237670;27;38751;-85
2022/01/30 07:19:01;;;;;;;;;;;6.20;99.90;;;;;;5219086;27;19999;-85
2022/01/30 07:21:30;;;;;;;;;;;6.20;99.90;;;;;;5238612;27;20003;-85
2022/01/30 07:23:57;;;;;;;;;;;6.20;99.90;;;;;;5201911;27;19987;-84
2022/01/30 07:26:24;;;;;;;;;;;6.20;99.90;;;;;;5219740;27;19996;-84
2022/01/30 07:28:52;;;;;;;;;;;6.20;99.90;;;;;;5219522;27;19992;-84
2022/01/30 07:31:19;;;;;;;;;;;6.20;99.90;;;;;;5219514;27;19999;-84
2022/01/30 07:33:46;;;;;;;;;;;6.10;99.90;;;;;;5219301;27;20010;-84
2022/01/30 07:36:13;;;;;;;;;;;6.10;99.90;;;;;;5219735;27;20042;-84
2022/01/30 07:38:41;;;;;;;;;;;6.10;99.90;;;;;;5218787;27;20006;-84
2022/01/30 07:41:08;;;;;;;;;;;6.10;99.90;;;;;;5201333;27;19987;-84
2022/01/30 07:43:38;;;;;;;;;;;6.10;99.90;;;;;;5238819;27;19999;-85
2022/01/30 07:46:08;;;;;;;;;;;6.10;99.90;;;;;;5219324;27;20033;-85
2022/01/30 07:48:35;;;;;;;;;;;6.10;99.90;;;;;;5218577;27;21021;-84
2022/01/30 07:51:06;;;;;;;;;;;6.10;99.90;;;;;;5219549;27;20000;-84
2022/01/30 07:53:33;;;;;;;;;;;6.10;99.90;;;;;;5238437;27;20013;-84
2022/01/30 07:56:00;;;;;;;;;;;6.10;99.90;;;;;;5200946;27;20410;-84
2022/01/30 07:58:28;;;;;;;;;;;6.10;99.90;;;;;;5218586;27;19995;-84
2022/01/30 08:00:57;;;;;;;;;;;6.10;99.90;;;;;;5201429;27;19997;-84
2022/01/30 08:03:25;;;;;;;;;;;6.10;99.90;;;;;;5218473;27;20007;-84
2022/01/30 08:05:55;;;;;;;;;;;6.10;99.90;;;;;;5219931;27;20031;-84
2022/01/30 08:08:22;;;;;;;;;;;6.00;99.90;;;;;;5219220;27;20355;-85
2022/01/30 08:10:50;;;;;;;;;;;6.00;99.90;;;;;;5218637;27;20414;-84
2022/01/30 08:13:17;;;;;;;;;;;6.00;99.90;;;;;;5219346;27;20003;-84
2022/01/30 08:15:45;;;;;;;;;;;6.00;99.90;;;;;;5201069;27;20045;-84
2022/01/30 08:18:12;;;;;;;;;;;6.00;99.90;;;;;;5237797;27;20431;-84
2022/01/30 08:20:42;;;;;;;;;;;6.00;99.90;;;;;;5201569;27;22792;-84
2022/01/30 08:23:15;;;;;;;;;;;6.00;99.90;;;;;;5219356;27;20007;-84
2022/01/30 08:25:45;;;;;;;;;;;6.00;99.90;;;;;;5238147;27;20006;-85
2022/01/30 08:28:12;;;;;;;;;;;6.00;99.90;;;;;;5237891;27;20383;-84
2022/01/30 08:30:39;;;;;;;;;;;6.00;99.90;;;;;;5218819;27;20006;-84
2022/01/30 08:33:06;;;;;;;;;;;6.00;99.90;;;;;;5219518;27;20347;-84
2022/01/30 08:35:36;;;;;;;;;;;6.00;99.90;;;;;;5238284;27;20202;-85
2022/01/30 08:38:03;;;;;;;;;;;6.00;99.90;;;;;;5219047;27;20005;-84
2022/01/30 08:40:30;;;;;;;;;;;6.00;99.90;;;;;;5238046;27;20435;-84
2022/01/30 08:43:00;;;;;;;;;;;6.00;99.90;;;;;;5219678;27;20052;-84
2022/01/30 08:45:27;;;;;;;;;;;6.00;99.90;;;;;;5238249;27;20006;-84
2022/01/30 08:47:55;;;;;;;;;;;6.00;99.90;;;;;;5218870;27;20066;-84
2022/01/30 08:50:24;;;;;;;;;;;6.00;99.90;;;;;;5218832;27;20010;-84
2022/01/30 08:52:54;;;;;;;;;;;6.00;99.90;;;;;;5201826;27;19996;-84
2022/01/30 08:55:21;;;;;;;;;;;6.00;99.90;;;;;;5237792;27;20414;-84
2022/01/30 08:57:49;;;;;;;;;;;6.00;99.90;;;;;;5219028;27;20043;-84
2022/01/30 09:00:17;;;;;;;;;;;6.00;99.90;;;;;;5237930;27;20375;-84
2022/01/30 09:02:44;;;;;;;;;;;6.00;99.90;;;;;;5238069;27;20007;-84
2022/01/30 09:05:12;;;;;;;;;;;6.00;99.90;;;;;;5218898;27;19993;-84
2022/01/30 09:07:39;;;;;;;;;;;6.00;99.90;;;;;;5218587;27;20006;-84
2022/01/30 09:10:08;;;;;;;;;;;6.00;99.90;;;;;;5238150;27;20003;-84
2022/01/30 09:12:35;;;;;;;;;;;6.00;99.90;;;;;;5238303;27;20042;-84
2022/01/30 09:15:03;;;;;;;;;;;6.00;99.90;;;;;;5218438;27;20015;-84
2022/01/30 09:17:31;;;;;;;;;;;6.00;99.90;;;;;;5201363;27;20017;-84
2022/01/30 09:19:58;;;;;;;;;;;6.00;99.90;;;;;;5237866;27;20013;-84
2022/01/30 09:22:25;;;;;;;;;;;6.00;99.90;;;;;;5238270;27;20442;-88
2022/01/30 09:24:52;;;;;;;;;;;6.00;99.90;;;;;;5218792;27;20004;-87
2022/01/30 09:27:20;;;;;;;;;;;6.00;99.90;;;;;;5201560;27;19991;-87
2022/01/30 09:29:47;;;;;;;;;;;6.00;99.90;;;;;;5238375;27;20002;-88
2022/01/30 09:32:14;;;;;;;;;;;6.00;99.90;;;;;;5237864;27;19995;-88
2022/01/30 09:34:45;;;;;;;;;;;6.00;99.90;;;;;;5218667;27;20007;-87
2022/01/30 09:37:12;;;;;;;;;;;6.00;99.90;;;;;;5237721;27;20025;-87
2022/01/30 09:39:39;;;;;;;;;;;6.00;99.90;;;;;;5201084;27;19987;-87
2022/01/30 09:42:09;;;;;;;;;;;6.00;99.90;;;;;;5201200;27;19991;-88
2022/01/30 09:44:40;;;;;;;;;;;6.00;99.90;;;;;;5219630;27;20019;-88
2022/01/30 09:47:14;;;;;;;;;;;6.10;99.90;;;;;;5237766;27;20042;-87
2022/01/30 09:49:51;;;;;;;;;;;6.10;99.90;;;;;;5218411;27;19999;-87
2022/01/30 09:52:19;;;;;;;;;;;6.00;99.90;;;;;;5218848;27;20037;-87
2022/01/30 09:54:47;;;;;;;;;;;6.10;99.90;;;;;;5237542;27;20014;-86
2022/01/30 09:57:15;;;;;;;;;;;6.10;99.90;;;;;;5218457;27;20046;-86
2022/01/30 09:59:42;;;;;;;;;;;6.10;99.90;;;;;;5237287;27;33248;-87
2022/01/30 10:02:10;;;;;;;;;;;6.10;99.90;;;;;;5215609;27;20388;-83
2022/01/30 10:04:39;;;;;;;;;;;6.10;99.90;;;;;;5215485;27;24438;-83
2022/01/30 10:07:13;;;;;;;;;;;6.10;99.90;;;;;;5216119;27;40088;-84
2022/01/30 10:09:49;;;;;;;;;;;6.10;99.90;;;;;;5215055;27;39776;-84
2022/01/30 10:12:19;;;;;;;;;;;6.10;99.90;;;;;;5197493;27;39374;-84
2022/01/30 10:14:53;;;;;;;;;;;6.10;99.90;;;;;;5199474;27;19992;-84
2022/01/30 10:17:39;;;;;;;;;;;6.10;99.90;;;;;;5216321;27;42635;-84
2022/01/30 10:20:26;;;;;;;;;;;6.10;99.90;;;;;;5215253;27;33035;-84
2022/01/30 10:23:02;;;;;;;;;;;6.10;99.90;;;;;;5214961;27;34913;-84
2022/01/30 10:25:31;;;;;;;;;;;6.10;99.90;;;;;;5197233;27;44188;-84
2022/01/30 10:28:04;;;;;;;;;;;6.10;99.90;;;;;;5216110;27;20004;-83
2022/01/30 10:30:42;;;;;;;;;;;6.10;99.90;;;;;;5216101;27;20006;-83
2022/01/30 10:33:12;;;;;;;;;;;6.10;99.90;;;;;;5217566;27;20392;-83
2022/01/30 10:35:59;;;;;;;;;;;6.10;99.90;;;;;;5216993;27;20000;-83
2022/01/30 10:38:28;;;;;;;;;;;6.10;99.90;;;;;;5197237;27;35357;-84
2022/01/30 10:40:59;;;;;;;;;;;6.10;99.90;;;;;;5215656;27;19992;-84
2022/01/30 10:43:45;;;;;;;;;;;6.10;99.90;;;;;;5217365;27;22061;-83
2022/01/30 10:46:17;;;;;;;;;;;6.10;99.90;;;;;;5198258;27;20340;-84
2022/01/30 10:48:54;;;;;;;;;;;6.10;99.90;;;;;;5216418;27;19991;-83
2022/01/30 10:51:22;;;;;;;;;;;6.10;99.90;;;;;;5216342;27;19992;-83
2022/01/30 10:53:52;;;;;;;;;;;6.20;99.90;;;;;;5215790;27;20489;-83
2022/01/30 10:56:25;;;;;;;;;;;6.10;99.90;;;;;;5216426;27;20009;-83
2022/01/30 10:59:04;;;;;;;;;;;6.10;99.90;;;;;;5217509;27;20002;-83
2022/01/30 11:01:31;;;;;;;;;;;6.20;99.90;;;;;;5215600;27;20011;-83
2022/01/30 11:04:01;;;;;;;;;;;6.20;99.90;;;;;;5215945;27;19992;-83
2022/01/30 11:06:29;;;;;;;;;;;6.20;99.90;;;;;;5197765;27;20400;-83
2022/01/30 11:09:13;;;;;;;;;;;6.20;99.90;;;;;;5215733;27;20017;-84
2022/01/30 11:11:46;;;;;;;;;;;6.20;99.90;;;;;;5197882;27;19998;-83
2022/01/30 11:14:17;;;;;;;;;;;6.20;99.90;;;;;;5217323;27;20393;-83
2022/01/30 11:17:02;;;;;;;;;;;6.20;99.90;;;;;;5198047;27;19990;-83
2022/01/30 11:19:34;;;;;;;;;;;6.20;99.90;;;;;;5216495;27;20366;-83
2022/01/30 11:22:11;;;;;;;;;;;6.20;99.90;;;;;;5215335;27;21036;-83
2022/01/30 11:24:42;;;;;;;;;;;6.20;99.90;;;;;;5215511;27;23198;-84
2022/01/30 11:27:10;;;;;;;;;;;6.20;99.90;;;;;;5217450;27;20328;-84
2022/01/30 11:29:37;;;;;;;;;;;6.20;99.90;;;;;;5216146;27;20004;-83
2022/01/30 11:32:06;;;;;;;;;;;6.20;99.90;;;;;;5214962;27;19999;-83
2022/01/30 11:34:37;;;;;;;;;;;6.20;99.90;;;;;;5216650;27;26100;-83
2022/01/30 11:37:05;;;;;;;;;;;6.20;99.90;;;;;;5215897;27;20002;-83
2022/01/30 11:39:34;;;;;;;;;;;6.20;99.90;;;;;;5215495;27;19995;-83
2022/01/30 11:42:04;;;;;;;;;;;6.20;99.90;;;;;;5215405;27;19999;-84
2022/01/30 11:44:32;;;;;;;;;;;6.30;99.90;;;;;;5216431;27;20004;-83
2022/01/30 11:46:59;;;;;;;;;;;6.30;99.90;;;;;;5215132;27;20017;-84
2022/01/30 11:49:45;;;;;;;;;;;6.30;99.90;;;;;;5215397;27;20061;-84
2022/01/30 11:52:13;;;;;;;;;;;6.30;99.90;;;;;;5215278;27;24238;-84
2022/01/30 11:54:49;;;;;;;;;;;6.30;99.90;;;;;;5214857;27;19995;-84
2022/01/30 11:57:22;;;;;;;;;;;6.30;99.90;;;;;;5216885;27;21492;-84
2022/01/30 11:59:50;;;;;;;;;;;6.30;99.90;;;;;;5214696;27;22498;-84
2022/01/30 12:02:29;;;;;;;;;;;6.30;99.90;;;;;;5215257;27;20036;-84
2022/01/30 12:05:07;;;;;;;;;;;6.40;99.90;;;;;;5215153;27;23734;-84
2022/01/30 12:07:38;;;;;;;;;;;6.40;99.90;;;;;;5217068;27;20008;-84
2022/01/30 12:10:27;;;;;;;;;;;6.40;99.90;;;;;;5196398;27;45427;-84
2022/01/30 12:13:01;;;;;;;;;;;6.40;99.90;;;;;;5215317;27;19992;-84
2022/01/30 12:15:36;;;;;;;;;;;6.40;99.90;;;;;;5216344;27;27213;-84
2022/01/30 12:18:13;;;;;;;;;;;6.40;99.90;;;;;;5197249;27;23166;-84
2022/01/30 12:20:56;;;;;;;;;;;6.50;99.90;;;;;;5215536;27;20012;-84
2022/01/30 12:23:28;;;;;;;;;;;6.50;99.90;;;;;;5215094;27;19996;-84
2022/01/30 12:26:03;;;;;;;;;;;6.50;99.90;;;;;;5217411;27;20456;-84
2022/01/30 12:28:43;;;;;;;;;;;6.50;99.90;;;;;;5215771;27;19996;-83
2022/01/30 12:31:30;;;;;;;;;;;6.50;99.90;;;;;;5214628;27;20030;-83
2022/01/30 12:33:58;;;;;;;;;;;6.50;99.90;;;;;;5217332;27;20353;-84
2022/01/30 12:36:26;;;;;;;;;;;6.50;99.90;;;;;;5215196;27;19999;-83
2022/01/30 12:38:55;;;;;;;;;;;6.50;99.90;;;;;;5215397;27;20094;-83
2022/01/30 12:41:26;;;;;;;;;;;6.50;99.90;;;;;;5214585;27;20026;-84
2022/01/30 12:43:59;;;;;;;;;;;6.50;99.90;;;;;;5215236;27;20447;-83
2022/01/30 12:46:29;;;;;;;;;;;6.60;99.90;;;;;;5215701;27;20393;-84
2022/01/30 12:49:01;;;;;;;;;;;6.50;99.90;;;;;;5215361;27;20026;-84
2022/01/30 12:51:28;;;;;;;;;;;6.50;99.90;;;;;;5216489;27;23346;-84
2022/01/30 12:53:56;;;;;;;;;;;6.50;99.90;;;;;;5196472;27;36058;-84
2022/01/30 12:56:24;;;;;;;;;;;6.50;99.90;;;;;;5213846;27;37232;-83
2022/01/30 12:58:54;;;;;;;;;;;6.50;99.90;;;;;;5214181;27;30592;-83
2022/01/30 13:01:24;;;;;;;;;;;6.50;99.90;;;;;;5216869;27;20007;-83
2022/01/30 13:04:09;;;;;;;;;;;6.60;99.90;;;;;;5215593;27;19992;-84
2022/01/30 13:06:56;;;;;;;;;;;6.50;99.90;;;;;;5217466;27;20003;-83
2022/01/30 13:09:27;;;;;;;;;;;6.60;99.90;;;;;;5289928;27;19992;-83
2022/01/30 13:11:59;;;;;;;;;;;6.50;99.90;;;;;;5198069;27;19995;-84
2022/01/30 13:14:33;;;;;;;;;;;6.60;99.90;;;;;;5216619;27;19999;-84
2022/01/30 13:17:03;;;;;;;;;;;6.60;99.90;;;;;;5216815;27;20022;-84
2022/01/30 13:19:33;;;;;;;;;;;6.60;99.90;;;;;;5216209;27;20008;-84
2022/01/30 13:22:01;;;;;;;;;;;6.60;99.90;;;;;;5214564;27;20010;-84
2022/01/30 13:24:29;;;;;;;;;;;6.60;99.90;;;;;;5215662;27;20006;-84
2022/01/30 13:26:57;;;;;;;;;;;6.60;99.90;;;;;;5215088;27;20003;-84
2022/01/30 13:29:27;;;;;;;;;;;6.60;99.90;;;;;;5215859;27;20003;-84
2022/01/30 13:31:56;;;;;;;;;;;6.60;99.90;;;;;;5214652;27;20010;-84
2022/01/30 13:34:26;;;;;;;;;;;6.70;99.90;;;;;;5216202;27;19988;-84
2022/01/30 13:37:05;;;;;;;;;;;6.70;99.90;;;;;;5216760;27;20000;-83
2022/01/30 13:39:36;;;;;;;;;;;6.70;99.90;;;;;;5217851;27;19991;-83
2022/01/30 13:47:50;;;;;;;;;;;6.70;99.90;;;;;;5217707;27;20016;-83
2022/01/30 13:50:17;;;;;;;;;;;6.80;99.90;;;;;;5216259;27;19987;-83
2022/01/30 13:52:47;;;;;;;;;;;6.70;99.90;;;;;;5198982;27;20010;-83
2022/01/30 13:55:15;;;;;;;;;;;6.70;99.90;;;;;;5216907;27;20000;-83
2022/01/30 13:57:44;;;;;;;;;;;6.80;99.90;;;;;;5216181;27;20013;-83
2022/01/30 14:00:12;;;;;;;;;;;6.80;99.90;;;;;;5198940;27;20069;-83
2022/01/30 14:02:55;;;;;;;;;;;6.80;99.90;;;;;;5216176;27;20007;-83
2022/01/30 14:05:24;;;;;;;;;;;6.80;99.90;;;;;;5216953;27;20000;-83
2022/01/30 14:07:56;;;;;;;;;;;6.80;99.90;;;;;;5198289;27;19993;-83
2022/01/30 14:10:28;;;;;;;;;;;6.80;99.90;;;;;;5215908;27;20015;-83
2022/01/30 14:13:01;;;;;;;;;;;6.80;99.90;;;;;;5216167;27;20410;-83
2022/01/30 14:15:30;;;;;;;;;;;6.80;99.90;;;;;;5217417;27;21307;-83
2022/01/30 14:18:18;;;;;;;;;;;6.80;99.90;;;;;;5215768;27;19987;-83
2022/01/30 14:20:46;;;;;;;;;;;6.80;99.90;;;;;;5198199;27;20000;-83
2022/01/30 14:23:16;;;;;;;;;;;6.80;99.90;;;;;;5217345;27;20053;-83
2022/01/30 14:25:44;;;;;;;;;;;6.80;99.90;;;;;;5216342;27;20399;-83
2022/01/30 14:28:17;;;;;;;;;;;6.90;99.90;;;;;;5215518;27;40442;-83
2022/01/30 14:30:45;;;;;;;;;;;6.90;99.90;;;;;;5198061;27;19999;-83
2022/01/30 14:33:12;;;;;;;;;;;6.90;99.90;;;;;;5216394;27;19996;-83
2022/01/30 14:35:39;;;;;;;;;;;6.80;99.90;;;;;;5216101;27;20036;-83
2022/01/30 14:38:08;;;;;;;;;;;6.90;99.90;;;;;;5216026;27;19996;-83
2022/01/30 14:40:39;;;;;;;;;;;6.80;99.90;;;;;;5215526;27;20008;-83
2022/01/30 14:43:07;;;;;;;;;;;6.90;99.90;;;;;;5198197;27;20020;-83
2022/01/30 14:45:35;;;;;;;;;;;6.90;99.90;;;;;;5217047;27;19999;-83
2022/01/30 14:48:03;;;;;;;;;;;6.90;99.90;;;;;;5217241;27;20002;-83
2022/01/30 14:50:37;;;;;;;;;;;6.90;99.90;;;;;;5216120;27;19987;-83
2022/01/30 14:53:05;;;;;;;;;;;6.90;99.90;;;;;;5215930;27;20007;-83
2022/01/30 14:55:33;;;;;;;;;;;6.90;99.90;;;;;;5215653;27;19999;-83
2022/01/30 14:58:00;;;;;;;;;;;6.90;99.90;;;;;;5215575;27;20371;-83
2022/01/30 15:00:29;;;;;;;;;;;6.90;99.90;;;;;;5197875;27;19988;-83
2022/01/30 15:03:02;;;;;;;;;;;6.90;99.90;;;;;;5215783;27;20000;-83
2022/01/30 15:05:29;;;;;;;;;;;6.90;99.90;;;;;;5215583;27;20053;-83
2022/01/30 15:07:57;;;;;;;;;;;7.00;99.90;;;;;;5217153;27;20006;-83
2022/01/30 15:10:25;;;;;;;;;;;6.90;99.90;;;;;;5217136;27;20000;-83
2022/01/30 15:12:53;;;;;;;;;;;6.90;99.90;;;;;;5215584;27;20000;-83
2022/01/30 15:15:22;;;;;;;;;;;7.00;99.90;;;;;;5215416;27;20007;-83
2022/01/30 15:17:52;;;;;;;;;;;7.00;99.90;;;;;;5215746;27;20059;-83
2022/01/30 15:20:19;;;;;;;;;;;7.00;99.90;;;;;;5215410;27;20050;-83
2022/01/30 15:22:47;;;;;;;;;;;7.00;99.90;;;;;;5198125;27;20007;-83
2022/01/30 15:25:17;;;;;;;;;;;7.00;99.90;;;;;;5197850;27;19996;-82
2022/01/30 15:27:44;;;;;;;;;;;7.00;99.90;;;;;;5216702;27;20007;-82
2022/01/30 15:30:11;;;;;;;;;;;7.00;99.90;;;;;;5217447;27;20007;-82
2022/01/30 15:32:39;;;;;;;;;;;7.00;99.90;;;;;;5215032;27;20081;-82
2022/01/30 15:35:07;;;;;;;;;;;7.00;99.90;;;;;;5215052;27;20362;-82
2022/01/30 15:37:34;;;;;;;;;;;7.00;99.90;;;;;;5217059;27;20018;-82
2022/01/30 15:40:04;;;;;;;;;;;7.00;99.90;;;;;;5214125;27;42039;-83
2022/01/30 15:42:32;;;;;;;;;;;7.00;99.90;;;;;;5198167;27;19992;-83
2022/01/30 15:50:13;;;;;;;;;;;7.00;99.90;;;;;;5216812;27;35391;-82
2022/01/30 15:52:43;;;;;;;;;;;7.10;99.90;;;;;;5216204;27;41725;-82
2022/01/30 15:55:11;;;;;;;;;;;7.10;99.90;;;;;;5214322;27;36671;-83
2022/01/30 15:57:38;;;;;;;;;;;7.10;99.90;;;;;;5216026;27;44047;-83
2022/01/30 16:00:06;;;;;;;;;;;7.10;99.90;;;;;;5214764;27;30642;-82